createdAt,value
2022-11-20T00:00:36.890Z,99291.50
2022-11-20T00:02:35.174Z,99291.50
2022-11-20T00:04:33.421Z,99301.75
2022-11-20T00:06:31.709Z,99297.31
2022-11-20T00:08:29.763Z,99303.84
2022-11-20T00:10:28.304Z,99300.19
2022-11-20T00:12:26.598Z,99308.25
2022-11-20T00:14:24.905Z,99308.94
2022-11-20T00:16:23.230Z,99311.13
2022-11-20T00:18:21.579Z,99314.75
2022-11-20T00:20:20.013Z,99316.94
2022-11-20T00:22:18.088Z,99312.53
2022-11-20T00:24:16.113Z,99316.94
2022-11-20T00:26:14.429Z,99327.88
2022-11-20T00:28:12.637Z,99323.47
2022-11-20T00:30:14.625Z,99313.94
2022-11-20T00:32:13.252Z,99316.13
2022-11-20T00:34:11.474Z,99316.09
2022-11-20T00:36:09.739Z,99317.53
2022-11-20T00:38:07.763Z,99313.13
2022-11-20T00:40:05.846Z,99309.50
2022-11-20T00:42:03.911Z,99315.34
2022-11-20T00:44:02.239Z,99323.34
2022-11-20T00:45:59.477Z,99321.13
2022-11-20T00:47:57.736Z,99319.69
2022-11-20T00:49:55.805Z,99312.38
2022-11-20T00:51:53.897Z,99316.72
2022-11-20T00:53:52.200Z,99315.25
2022-11-20T00:55:50.484Z,99314.50
2022-11-20T00:57:48.728Z,99318.88
2022-11-20T00:59:46.848Z,99321.78
2022-11-20T01:01:44.933Z,99325.44
2022-11-20T01:03:42.002Z,99318.13
2022-11-20T01:05:40.261Z,99311.53
2022-11-20T01:07:38.566Z,99315.19
2022-11-20T01:09:36.651Z,99316.63
2022-11-20T01:11:34.741Z,99323.19
2022-11-20T01:13:42.372Z,99319.53
2022-11-20T01:15:40.430Z,99320.97
2022-11-20T01:17:38.431Z,99318.75
2022-11-20T01:19:36.709Z,99318.75
2022-11-20T01:21:34.728Z,99323.88
2022-11-20T01:23:32.742Z,99321.63
2022-11-20T01:25:31.419Z,99315.78
2022-11-20T01:27:29.487Z,99317.97
2022-11-20T01:29:27.544Z,99324.56
2022-11-20T01:31:25.602Z,99321.63
2022-11-20T01:33:23.675Z,99320.88
2022-11-20T01:35:21.688Z,99323.03
2022-11-20T01:37:20.149Z,99322.34
2022-11-20T01:39:18.273Z,99318.69
2022-11-20T01:41:36.694Z,99317.19
2022-11-20T01:43:33.812Z,99313.53
2022-11-20T01:45:31.874Z,99312.78
2022-11-20T01:47:30.526Z,99316.44
2022-11-20T01:49:28.627Z,99314.97
2022-11-20T01:51:26.867Z,99311.34
2022-11-20T01:53:25.150Z,99310.59
2022-11-20T01:55:23.380Z,99312.03
2022-11-20T01:57:21.405Z,99305.44
2022-11-20T01:59:20.123Z,99309.09
2022-11-20T02:01:18.430Z,99307.63
2022-11-20T02:03:16.733Z,99312.03
2022-11-20T02:05:14.801Z,99306.88
2022-11-20T02:07:12.925Z,99306.88
2022-11-20T02:09:11.247Z,99309.06
2022-11-20T02:11:09.316Z,99313.44
2022-11-20T02:13:25.228Z,99303.94
2022-11-20T02:15:27.596Z,99306.09
2022-11-20T02:17:28.710Z,99306.09
2022-11-20T02:19:27.022Z,99307.53
2022-11-20T02:21:25.320Z,99298.06
2022-11-20T02:23:23.330Z,99296.59
2022-11-20T02:25:21.497Z,99298.06
2022-11-20T02:27:19.564Z,99293.66
2022-11-20T02:29:17.761Z,99278.31
2022-11-20T02:31:15.851Z,99287.81
2022-11-20T02:33:14.131Z,99292.16
2022-11-20T02:35:12.428Z,99278.25
2022-11-20T02:37:10.693Z,99282.66
2022-11-20T02:39:08.759Z,99286.31
2022-11-20T02:41:07.236Z,99287.75
2022-11-20T02:43:05.344Z,99293.59
2022-11-20T02:45:03.634Z,99295.06
2022-11-20T02:47:01.949Z,99295.06
2022-11-20T02:49:00.049Z,99291.41
2022-11-20T02:50:58.138Z,99300.16
2022-11-20T02:52:56.612Z,99300.91
2022-11-20T02:54:54.716Z,99297.25
2022-11-20T02:56:53.132Z,99304.50
2022-11-20T02:58:51.232Z,99300.84
2022-11-20T03:00:49.251Z,99301.59
2022-11-20T03:02:47.348Z,99311.78
2022-11-20T03:04:45.398Z,99311.78
2022-11-20T03:06:43.699Z,99300.09
2022-11-20T03:08:41.918Z,99312.50
2022-11-20T03:10:40.161Z,99308.16
2022-11-20T03:12:38.430Z,99311.78
2022-11-20T03:14:36.498Z,99316.19
2022-11-20T03:16:34.566Z,99311.84
2022-11-20T03:18:32.637Z,99316.22
2022-11-20T03:20:30.901Z,99309.66
2022-11-20T03:22:28.953Z,99304.53
2022-11-20T03:24:26.965Z,99314.03
2022-11-20T03:26:25.222Z,99308.94
2022-11-20T03:28:23.272Z,99309.69
2022-11-20T03:30:22.071Z,99307.50
2022-11-20T03:32:21.233Z,99306.06
2022-11-20T03:34:19.270Z,99309.75
2022-11-20T03:36:17.394Z,99314.09
2022-11-20T03:38:15.741Z,99312.66
2022-11-20T03:40:14.017Z,99320.69
2022-11-20T03:42:32.825Z,99316.28
2022-11-20T03:44:31.081Z,99311.94
2022-11-20T03:46:29.305Z,99314.13
2022-11-20T03:48:27.584Z,99312.66
2022-11-20T03:50:25.784Z,99316.28
2022-11-20T03:52:24.105Z,99307.53
2022-11-20T03:54:22.184Z,99317.75
2022-11-20T03:56:20.286Z,99308.25
2022-11-20T03:58:19.085Z,99315.56
2022-11-20T04:00:17.362Z,99304.59
2022-11-20T04:02:15.866Z,99312.66
2022-11-20T04:04:14.388Z,99306.81
2022-11-20T04:06:13.081Z,99302.41
2022-11-20T04:08:11.144Z,99301.66
2022-11-20T04:10:09.191Z,99307.50
2022-11-20T04:12:07.264Z,99302.41
2022-11-20T04:14:05.325Z,99306.75
2022-11-20T04:16:03.588Z,99298.00
2022-11-20T04:18:01.886Z,99303.84
2022-11-20T04:20:00.161Z,99303.09
2022-11-20T04:21:58.902Z,99300.19
2022-11-20T04:23:56.991Z,99300.19
2022-11-20T04:25:55.067Z,99297.97
2022-11-20T04:27:53.278Z,99304.53
2022-11-20T04:29:51.674Z,99302.31
2022-11-20T04:31:50.098Z,99303.06
2022-11-20T04:33:48.397Z,99308.16
2022-11-20T04:35:46.458Z,99302.31
2022-11-20T04:37:44.482Z,99308.84
2022-11-20T04:39:42.673Z,99307.44
2022-11-20T04:41:40.711Z,99311.78
2022-11-20T04:43:38.041Z,99305.19
2022-11-20T04:45:36.338Z,99307.41
2022-11-20T04:47:34.667Z,99307.41
2022-11-20T04:49:33.552Z,99304.47
2022-11-20T04:51:31.600Z,99297.16
2022-11-20T04:53:29.897Z,99300.06
2022-11-20T04:55:28.186Z,99295.66
2022-11-20T04:57:26.201Z,99300.75
2022-11-20T04:59:24.514Z,99302.25
2022-11-20T05:01:23.274Z,99294.91
2022-11-20T05:03:21.596Z,99302.94
2022-11-20T05:05:19.601Z,99305.16
2022-11-20T05:07:17.983Z,99302.25
2022-11-20T05:09:16.101Z,99303.69
2022-11-20T05:11:14.149Z,99294.22
2022-11-20T05:13:12.231Z,99297.91
2022-11-20T05:15:10.676Z,99289.84
2022-11-20T05:17:08.737Z,99295.72
2022-11-20T05:19:06.769Z,99299.34
2022-11-20T05:21:05.050Z,99283.31
2022-11-20T05:23:03.268Z,99289.88
2022-11-20T05:25:01.565Z,99285.50
2022-11-20T05:26:59.661Z,99286.25
2022-11-20T05:28:57.982Z,99292.84
2022-11-20T05:30:56.005Z,99287.75
2022-11-20T05:32:54.238Z,99294.31
2022-11-20T05:34:52.512Z,99291.41
2022-11-20T05:36:50.936Z,99291.41
2022-11-20T05:38:51.182Z,99286.31
2022-11-20T05:40:49.847Z,99290.66
2022-11-20T05:42:47.822Z,99285.56
2022-11-20T05:44:45.890Z,99288.47
2022-11-20T05:46:44.195Z,99285.56
2022-11-20T05:48:42.433Z,99278.97
2022-11-20T05:50:40.680Z,99276.06
2022-11-20T05:52:38.773Z,99286.25
2022-11-20T05:54:37.182Z,99289.16
2022-11-20T05:56:35.281Z,99286.25
2022-11-20T05:58:33.346Z,99292.09
2022-11-20T06:00:32.050Z,99300.09
2022-11-20T06:02:30.382Z,99302.28
2022-11-20T06:04:28.465Z,99297.19
2022-11-20T06:06:27.682Z,99297.91
2022-11-20T06:08:25.705Z,99304.47
2022-11-20T06:10:23.734Z,99300.81
2022-11-20T06:12:21.770Z,99303.72
2022-11-20T06:14:19.831Z,99302.25
2022-11-20T06:16:17.893Z,99305.16
2022-11-20T06:18:15.989Z,99308.09
2022-11-20T06:20:13.996Z,99300.75
2022-11-20T06:22:12.109Z,99297.84
2022-11-20T06:24:10.140Z,99300.00
2022-11-20T06:26:08.357Z,99296.38
2022-11-20T06:28:06.813Z,99291.97
2022-11-20T06:30:04.907Z,99301.47
2022-11-20T06:32:02.986Z,99303.66
2022-11-20T06:34:01.744Z,99300.72
2022-11-20T06:36:02.485Z,99296.28
2022-11-20T06:38:02.688Z,99293.38
2022-11-20T06:40:00.864Z,99297.72
2022-11-20T06:41:59.453Z,99290.47
2022-11-20T06:43:57.614Z,99298.47
2022-11-20T06:45:55.879Z,99300.66
2022-11-20T06:47:54.303Z,99296.28
2022-11-20T06:49:52.321Z,99300.00
2022-11-20T06:51:50.535Z,99302.13
2022-11-20T06:53:48.662Z,99289.06
2022-11-20T06:55:46.722Z,99310.97
2022-11-20T06:57:44.988Z,99300.72
2022-11-20T06:59:43.339Z,99305.84
2022-11-20T07:01:41.630Z,99300.00
2022-11-20T07:03:39.637Z,99300.75
2022-11-20T07:05:37.700Z,99314.66
2022-11-20T07:07:35.966Z,99308.09
2022-11-20T07:09:34.639Z,99309.56
2022-11-20T07:11:32.857Z,99318.31
2022-11-20T07:13:30.938Z,99316.16
2022-11-20T07:15:29.413Z,99316.16
2022-11-20T07:17:27.885Z,99317.63
2022-11-20T07:19:25.898Z,99316.19
2022-11-20T07:21:23.982Z,99320.59
2022-11-20T07:23:22.024Z,99327.16
2022-11-20T07:25:20.039Z,99326.44
2022-11-20T07:27:18.051Z,99334.47
2022-11-20T07:29:16.348Z,99332.34
2022-11-20T07:31:18.794Z,99327.97
2022-11-20T07:33:17.559Z,99329.50
2022-11-20T07:35:15.660Z,99336.13
2022-11-20T07:37:13.951Z,99335.41
2022-11-20T07:39:11.970Z,99325.94
2022-11-20T07:41:10.054Z,99339.88
2022-11-20T07:43:08.151Z,99336.31
2022-11-20T07:45:06.184Z,99335.66
2022-11-20T07:47:04.270Z,99337.16
2022-11-20T07:49:02.492Z,99343.78
2022-11-20T07:51:00.957Z,99340.22
2022-11-20T07:52:59.943Z,99348.34
2022-11-20T07:54:58.167Z,99346.22
2022-11-20T07:56:56.136Z,99341.88
2022-11-20T07:58:54.379Z,99350.72
2022-11-20T08:00:52.450Z,99345.66
2022-11-20T08:02:50.774Z,99348.66
2022-11-20T08:04:49.061Z,99345.06
2022-11-20T08:06:47.206Z,99353.91
2022-11-20T08:08:45.291Z,99349.56
2022-11-20T08:10:43.511Z,99367.88
2022-11-20T08:12:59.084Z,99362.84
2022-11-20T08:14:57.803Z,99363.59
2022-11-20T08:16:55.854Z,99363.66
2022-11-20T08:18:53.895Z,99368.84
2022-11-20T08:20:51.980Z,99372.53
2022-11-20T08:22:50.078Z,99371.81
2022-11-20T08:24:48.660Z,99374.09
2022-11-20T08:26:46.766Z,99371.16
2022-11-20T08:28:45.272Z,99385.09
2022-11-20T08:30:43.524Z,99390.97
2022-11-20T08:32:41.541Z,99380.78
2022-11-20T08:34:39.573Z,99386.63
2022-11-20T08:36:37.823Z,99388.88
2022-11-20T08:38:36.249Z,99387.44
2022-11-20T08:40:34.495Z,99391.13
2022-11-20T08:42:32.526Z,99391.88
2022-11-20T08:44:31.196Z,99391.88
2022-11-20T08:46:29.226Z,99393.31
2022-11-20T08:48:27.418Z,99395.56
2022-11-20T08:50:25.549Z,99397.03
2022-11-20T08:52:23.645Z,99399.97
2022-11-20T08:54:23.170Z,99401.44
2022-11-20T08:56:21.392Z,99406.56
2022-11-20T08:58:19.480Z,99408.75
2022-11-20T09:00:17.589Z,99410.22
2022-11-20T09:02:16.395Z,99408.00
2022-11-20T09:04:15.783Z,99407.31
2022-11-20T09:06:13.879Z,99409.50
2022-11-20T09:08:12.193Z,99419.75
2022-11-20T09:10:23.760Z,99416.84
2022-11-20T09:12:27.065Z,99411.72
2022-11-20T09:14:29.987Z,99420.50
2022-11-20T09:16:28.202Z,99414.66
2022-11-20T09:18:26.271Z,99425.59
2022-11-20T09:20:24.297Z,99421.25
2022-11-20T09:22:22.392Z,99431.44
2022-11-20T09:24:21.578Z,99435.88
2022-11-20T09:26:20.358Z,99439.50
2022-11-20T09:28:19.839Z,99440.25
2022-11-20T09:30:17.907Z,99438.06
2022-11-20T09:32:16.135Z,99435.13
2022-11-20T09:34:14.227Z,99430.03
2022-11-20T09:36:12.486Z,99435.13
2022-11-20T09:38:11.688Z,99430.03
2022-11-20T09:40:09.725Z,99432.97
2022-11-20T09:42:08.916Z,99431.53
2022-11-20T09:44:08.050Z,99430.78
2022-11-20T09:46:06.342Z,99441.72
2022-11-20T09:48:04.685Z,99438.81
2022-11-20T09:50:02.786Z,99432.22
2022-11-20T09:52:00.879Z,99437.31
2022-11-20T09:53:58.958Z,99441.72
2022-11-20T09:55:57.367Z,99446.84
2022-11-20T09:57:55.452Z,99439.56
2022-11-20T09:59:53.778Z,99438.84
2022-11-20T10:01:51.886Z,99434.44
2022-11-20T10:03:49.973Z,99434.47
2022-11-20T10:05:48.085Z,99440.31
2022-11-20T10:07:46.198Z,99446.16
2022-11-20T10:09:44.863Z,99441.06
2022-11-20T10:11:43.140Z,99442.53
2022-11-20T10:13:41.405Z,99446.22
2022-11-20T10:15:39.433Z,99445.47
2022-11-20T10:17:37.852Z,99445.47
2022-11-20T10:19:35.941Z,99442.53
2022-11-20T10:21:36.973Z,99445.47
2022-11-20T10:23:35.022Z,99440.38
2022-11-20T10:25:34.010Z,99434.53
2022-11-20T10:27:32.116Z,99441.13
2022-11-20T10:29:30.501Z,99436.69
2022-11-20T10:31:28.557Z,99435.25
2022-11-20T10:33:29.035Z,99432.28
2022-11-20T10:35:29.977Z,99441.81
2022-11-20T10:37:27.989Z,99429.38
2022-11-20T10:39:26.219Z,99426.44
2022-11-20T10:41:27.558Z,99425.00
2022-11-20T10:43:25.615Z,99424.25
2022-11-20T10:45:23.843Z,99425.69
2022-11-20T10:47:22.158Z,99424.25
2022-11-20T10:49:20.658Z,99411.06
2022-11-20T10:51:19.248Z,99413.31
2022-11-20T10:53:17.581Z,99401.56
2022-11-20T10:55:15.594Z,99400.13
2022-11-20T10:57:13.662Z,99392.09
2022-11-20T10:59:11.656Z,99395.03
2022-11-20T11:01:09.983Z,99382.63
2022-11-20T11:03:08.035Z,99382.63
2022-11-20T11:05:10.354Z,99377.50
2022-11-20T11:07:11.408Z,99373.88
2022-11-20T11:09:09.893Z,99376.06
2022-11-20T11:11:08.017Z,99372.44
2022-11-20T11:13:06.184Z,99360.75
2022-11-20T11:15:04.437Z,99358.56
2022-11-20T11:17:02.907Z,99351.97
2022-11-20T11:19:01.188Z,99361.50
2022-11-20T11:20:59.301Z,99345.41
2022-11-20T11:22:57.758Z,99344.66
2022-11-20T11:24:55.862Z,99339.53
2022-11-20T11:26:53.963Z,99337.38
2022-11-20T11:28:52.226Z,99338.81
2022-11-20T11:30:50.507Z,99333.69
2022-11-20T11:32:48.801Z,99331.50
2022-11-20T11:34:46.890Z,99333.00
2022-11-20T11:36:45.168Z,99327.16
2022-11-20T11:38:44.108Z,99333.75
2022-11-20T11:40:42.159Z,99324.25
2022-11-20T11:42:40.494Z,99325.00
2022-11-20T11:44:56.376Z,99328.66
2022-11-20T11:46:54.806Z,99316.97
2022-11-20T11:48:53.211Z,99316.97
2022-11-20T11:50:51.336Z,99312.56
2022-11-20T11:52:49.388Z,99307.47
2022-11-20T11:54:47.484Z,99305.25
2022-11-20T11:56:45.524Z,99298.72
2022-11-20T11:58:44.194Z,99297.22
2022-11-20T12:00:42.217Z,99298.72
2022-11-20T12:02:40.279Z,99300.91
2022-11-20T12:04:38.816Z,99294.31
2022-11-20T12:06:37.154Z,99297.97
2022-11-20T12:08:35.497Z,99293.56
2022-11-20T12:10:33.550Z,99297.25
2022-11-20T12:12:31.875Z,99292.88
2022-11-20T12:14:29.895Z,99299.44
2022-11-20T12:16:27.985Z,99296.53
2022-11-20T12:18:26.303Z,99289.94
2022-11-20T12:20:24.575Z,99295.03
2022-11-20T12:22:22.821Z,99300.91
2022-11-20T12:24:21.064Z,99303.06
2022-11-20T12:26:19.296Z,99294.31
2022-11-20T12:28:17.817Z,99301.63
2022-11-20T12:30:15.862Z,99299.41
2022-11-20T12:32:13.898Z,99289.91
2022-11-20T12:34:12.309Z,99292.81
2022-11-20T12:36:10.327Z,99291.38
2022-11-20T12:38:08.355Z,99289.91
2022-11-20T12:40:06.482Z,99282.59
2022-11-20T12:42:22.353Z,99289.19
2022-11-20T12:44:38.072Z,99287.72
2022-11-20T12:46:36.402Z,99281.88
2022-11-20T12:48:34.406Z,99286.97
2022-11-20T12:50:42.865Z,99281.13
2022-11-20T12:52:50.734Z,99296.50
2022-11-20T12:54:49.057Z,99288.47
2022-11-20T12:56:47.129Z,99276.00
2022-11-20T12:58:45.462Z,99278.25
2022-11-20T13:49:45.144Z,99226.31
2022-11-20T13:51:43.563Z,99215.69
2022-11-20T13:53:41.668Z,99220.50
2022-11-20T13:55:39.714Z,99218.75
2022-11-20T13:57:37.810Z,99214.03
2022-11-20T13:59:35.913Z,99209.22
2022-11-20T14:01:34.083Z,99210.19
2022-11-20T14:03:59.046Z,99214.75
2022-11-20T14:05:51.036Z,99199.53
2022-11-20T14:07:49.268Z,99198.88
2022-11-20T14:09:47.331Z,99190.09
2022-11-20T14:11:45.368Z,99187.22
2022-11-20T14:13:43.608Z,99185.03
2022-11-20T14:15:45.181Z,99182.84
2022-11-20T14:17:43.507Z,99182.88
2022-11-20T14:19:42.163Z,99177.75
2022-11-20T14:21:40.274Z,99176.25
2022-11-20T14:23:39.898Z,99167.44
2022-11-20T14:25:37.928Z,99168.19
2022-11-20T14:27:36.087Z,99161.56
2022-11-20T14:29:34.198Z,99159.38
2022-11-20T14:31:33.229Z,99152.72
2022-11-20T14:33:31.558Z,99147.59
2022-11-20T14:35:29.776Z,99145.38
2022-11-20T14:37:28.009Z,99146.84
2022-11-20T14:39:26.305Z,99147.53
2022-11-20T14:41:24.350Z,99136.50
2022-11-20T14:43:22.678Z,99137.97
2022-11-20T14:45:20.923Z,99141.63
2022-11-20T14:47:19.163Z,99139.41
2022-11-20T14:49:17.255Z,99132.78
2022-11-20T14:51:15.566Z,99121.03
2022-11-20T14:53:13.617Z,99118.03
2022-11-20T14:55:11.675Z,99118.75
2022-11-20T14:57:09.822Z,99119.47
2022-11-20T14:59:08.056Z,99118.00
2022-11-20T15:01:06.353Z,99113.56
2022-11-20T15:03:04.418Z,99111.38
2022-11-20T15:05:04.218Z,99112.06
2022-11-20T15:07:02.564Z,99120.84
2022-11-20T15:09:00.692Z,99117.16
2022-11-20T15:10:58.792Z,99119.34
2022-11-20T15:12:58.159Z,99110.53
2022-11-20T15:14:56.633Z,99114.91
2022-11-20T15:16:54.724Z,99113.44
2022-11-20T15:18:52.784Z,99115.59
2022-11-20T15:20:50.869Z,99115.59
2022-11-20T15:22:48.903Z,99114.84
2022-11-20T15:24:46.928Z,99114.09
2022-11-20T15:26:45.119Z,99129.44
2022-11-20T15:28:43.202Z,99125.78
2022-11-20T15:30:41.292Z,99113.31
2022-11-20T15:32:39.370Z,99108.91
2022-11-20T15:34:37.397Z,99108.91
2022-11-20T15:36:36.061Z,99111.81
2022-11-20T15:38:34.172Z,99108.13
2022-11-20T15:40:32.421Z,99105.19
2022-11-20T15:42:30.441Z,99108.84
2022-11-20T15:44:28.733Z,99097.13
2022-11-20T15:46:27.461Z,99097.13
2022-11-20T15:48:25.573Z,99096.38
2022-11-20T15:50:23.870Z,99102.94
2022-11-20T15:52:22.341Z,99102.94
2022-11-20T15:54:21.381Z,99097.09
2022-11-20T15:56:20.049Z,99102.22
2022-11-20T15:58:19.126Z,99108.75
2022-11-20T16:00:23.242Z,99097.03
2022-11-20T16:02:22.028Z,99101.41
2022-11-20T16:04:21.072Z,99097.03
2022-11-20T16:06:19.456Z,99110.91
2022-11-20T16:08:17.690Z,99101.38
2022-11-20T16:10:16.038Z,99098.44
2022-11-20T16:12:35.332Z,99105.75
2022-11-20T16:14:51.120Z,99111.59
2022-11-20T16:16:49.152Z,99110.81
2022-11-20T16:18:47.229Z,99107.16
2022-11-20T16:20:45.282Z,99096.88
2022-11-20T16:22:43.593Z,99103.44
2022-11-20T16:24:41.824Z,99096.09
2022-11-20T16:26:39.972Z,99099.03
2022-11-20T16:28:37.971Z,99095.31
2022-11-20T16:30:36.627Z,99090.94
2022-11-20T16:32:34.950Z,99090.16
2022-11-20T16:34:33.057Z,99082.09
2022-11-20T16:36:32.274Z,99082.09
2022-11-20T16:38:30.375Z,99082.03
2022-11-20T16:40:28.680Z,99079.13
2022-11-20T16:42:27.082Z,99084.94
2022-11-20T16:44:25.843Z,99076.13
2022-11-20T16:46:24.357Z,99084.19
2022-11-20T16:48:22.688Z,99076.09
2022-11-20T16:50:21.026Z,99076.06
2022-11-20T16:52:19.066Z,99073.84
2022-11-20T16:54:20.742Z,99081.88
2022-11-20T16:56:19.343Z,99075.25
2022-11-20T16:58:17.427Z,99072.31
2022-11-20T17:00:15.515Z,99062.03
2022-11-20T17:02:13.929Z,99062.00
2022-11-20T17:04:11.948Z,99056.88
2022-11-20T17:06:09.957Z,99050.97
2022-11-20T17:08:08.406Z,99051.72
2022-11-20T17:10:06.652Z,99048.00
2022-11-20T17:12:04.909Z,99055.28
2022-11-20T17:14:03.690Z,99046.50
2022-11-20T17:16:01.881Z,99050.88
2022-11-20T17:17:59.971Z,99051.56
2022-11-20T17:19:58.061Z,99062.53
2022-11-20T17:21:56.088Z,99056.66
2022-11-20T17:23:54.473Z,99062.47
2022-11-20T17:25:52.763Z,99055.16
2022-11-20T17:27:50.845Z,99054.41
2022-11-20T17:29:48.899Z,99060.19
2022-11-20T17:31:47.460Z,99065.31
2022-11-20T17:33:45.469Z,99056.50
2022-11-20T17:35:43.513Z,99052.06
2022-11-20T17:37:41.537Z,99057.19
2022-11-20T17:39:40.402Z,99060.84
2022-11-20T17:41:38.519Z,99065.19
2022-11-20T17:43:37.125Z,99061.53
2022-11-20T17:45:35.421Z,99076.84
2022-11-20T17:47:33.479Z,99061.47
2022-11-20T17:49:31.741Z,99084.13
2022-11-20T17:51:30.028Z,99085.56
2022-11-20T17:53:28.445Z,99076.78
2022-11-20T17:55:26.549Z,99076.03
2022-11-20T17:57:42.473Z,99080.41
2022-11-20T17:59:40.552Z,99089.16
2022-11-20T18:01:39.600Z,99081.84
2022-11-20T18:03:37.690Z,99090.59
2022-11-20T18:05:35.915Z,99073.75
2022-11-20T18:07:40.163Z,99075.22
2022-11-20T18:09:39.591Z,99078.91
2022-11-20T18:11:37.848Z,99084.75
2022-11-20T18:13:50.142Z,99088.38
2022-11-20T18:15:48.418Z,99083.25
2022-11-20T18:17:46.750Z,99073.06
2022-11-20T18:19:55.715Z,99075.97
2022-11-20T18:22:04.280Z,99070.13
2022-11-20T18:24:02.498Z,99067.91
2022-11-20T18:26:00.916Z,99070.84
2022-11-20T18:27:59.331Z,99065.72
2022-11-20T18:29:57.377Z,99069.38
2022-11-20T18:31:55.407Z,99059.16
2022-11-20T18:33:55.013Z,99054.78
2022-11-20T18:35:53.032Z,99063.53
2022-11-20T18:37:51.198Z,99053.28
2022-11-20T18:39:50.474Z,99066.44
2022-11-20T18:42:06.429Z,99048.94
2022-11-20T18:44:22.649Z,99054.03
2022-11-20T18:46:22.011Z,99048.16
2022-11-20T18:48:20.062Z,99046.69
2022-11-20T18:50:19.201Z,99048.88
2022-11-20T18:52:17.459Z,99048.88
2022-11-20T18:54:15.716Z,99043.72
2022-11-20T18:56:14.890Z,99045.91
2022-11-20T18:58:13.195Z,99040.06
2022-11-20T19:00:11.533Z,99051.75
2022-11-20T19:02:09.798Z,99029.06
2022-11-20T19:04:07.889Z,99029.81
2022-11-20T19:06:06.174Z,99027.63
2022-11-20T19:08:04.311Z,99023.91
2022-11-20T19:10:04.124Z,99040.00
2022-11-20T19:12:02.720Z,99029.00
2022-11-20T19:14:01.139Z,99028.28
2022-11-20T19:15:59.196Z,99039.25
2022-11-20T19:17:59.250Z,99036.31
2022-11-20T19:19:57.513Z,99039.94
2022-11-20T19:21:55.530Z,99039.94
2022-11-20T19:23:53.857Z,99034.84
2022-11-20T19:25:52.106Z,99042.88
2022-11-20T19:27:50.168Z,99043.63
2022-11-20T19:29:48.625Z,99043.63
2022-11-20T19:31:47.051Z,99041.44
2022-11-20T19:33:45.075Z,99056.78
2022-11-20T19:35:43.370Z,99049.47
2022-11-20T19:37:41.602Z,99053.88
2022-11-20T19:39:39.735Z,99056.78
2022-11-20T19:41:38.009Z,99054.63
2022-11-20T19:43:36.043Z,99056.09
2022-11-20T19:45:34.133Z,99047.34
2022-11-20T19:48:00.661Z,99050.25
2022-11-20T19:49:50.103Z,99055.38
2022-11-20T19:51:48.186Z,99048.78
2022-11-20T19:53:46.415Z,99058.28
2022-11-20T19:55:44.429Z,99057.56
2022-11-20T19:57:42.562Z,99061.22
2022-11-20T19:59:40.801Z,99054.63
2022-11-20T20:01:38.853Z,99061.94
2022-11-20T20:03:37.587Z,99072.88
2022-11-20T20:05:35.898Z,99076.56
2022-11-20T20:07:34.040Z,99077.25
2022-11-20T20:09:34.365Z,99077.25
2022-11-20T20:11:32.805Z,99076.50
2022-11-20T20:13:31.209Z,99067.00
2022-11-20T20:15:29.343Z,99069.16
2022-11-20T20:17:27.381Z,99072.09
2022-11-20T20:19:25.915Z,99077.94
2022-11-20T20:21:24.424Z,99072.06
2022-11-20T20:23:22.525Z,99080.06
2022-11-20T20:25:20.819Z,99083.69
2022-11-20T20:27:18.941Z,99086.63
2022-11-20T20:29:20.576Z,99081.50
2022-11-20T20:31:18.707Z,99080.00
2022-11-20T20:33:16.993Z,99079.28
2022-11-20T20:35:15.288Z,99082.19
2022-11-20T20:37:13.358Z,99082.19
2022-11-20T20:39:11.471Z,99081.47
2022-11-20T20:41:09.966Z,99085.13
2022-11-20T20:43:08.339Z,99082.94
2022-11-20T20:45:08.490Z,99077.84
2022-11-20T20:47:06.576Z,99069.06
2022-11-20T20:49:05.026Z,99082.94
2022-11-20T20:51:03.722Z,99077.09
2022-11-20T20:53:02.003Z,99080.78
2022-11-20T20:55:00.176Z,99088.84
2022-11-20T20:56:58.423Z,99088.09
2022-11-20T20:58:56.854Z,99090.28
2022-11-20T21:00:55.149Z,99080.06
2022-11-20T21:02:53.197Z,99088.09
2022-11-20T21:04:51.552Z,99085.91
2022-11-20T21:06:49.860Z,99091.75
2022-11-20T21:08:47.891Z,99086.63
2022-11-20T21:10:45.933Z,99093.19
2022-11-20T21:12:44.022Z,99091.72
2022-11-20T21:14:42.041Z,99103.41
2022-11-20T21:16:44.296Z,99099.75
2022-11-20T21:18:42.378Z,99089.53
2022-11-20T21:20:57.884Z,99086.59
2022-11-20T21:22:55.903Z,99093.19
2022-11-20T21:24:54.197Z,99100.47
2022-11-20T21:26:52.705Z,99097.50
2022-11-20T21:28:50.969Z,99107.75
2022-11-20T21:30:48.986Z,99109.91
2022-11-20T21:32:47.429Z,99120.84
2022-11-20T21:34:45.478Z,99120.84
2022-11-20T21:36:43.745Z,99112.09
2022-11-20T21:38:41.841Z,99117.94
2022-11-20T21:40:40.533Z,99112.03
2022-11-20T21:42:38.617Z,99117.19
2022-11-20T21:44:36.908Z,99117.19
2022-11-20T21:46:35.203Z,99117.19
2022-11-20T21:48:33.247Z,99120.09
2022-11-20T21:50:31.920Z,99123.72
2022-11-20T21:52:29.934Z,99111.34
2022-11-20T21:54:28.229Z,99121.56
2022-11-20T21:56:26.210Z,99129.56
2022-11-20T21:58:24.925Z,99132.50
2022-11-20T22:00:23.188Z,99141.31
2022-11-20T22:02:21.207Z,99136.19
2022-11-20T22:04:20.047Z,99139.81
2022-11-20T22:06:18.079Z,99135.47
2022-11-20T22:08:16.372Z,99135.47
2022-11-20T22:10:18.506Z,99140.56
2022-11-20T22:12:17.172Z,99131.13
2022-11-20T22:14:24.423Z,99134.03
2022-11-20T22:16:23.121Z,99127.47
2022-11-20T22:18:22.538Z,99131.13
2022-11-20T22:20:20.619Z,99129.69
2022-11-20T22:22:18.902Z,99131.84
2022-11-20T22:24:17.239Z,99132.59
2022-11-20T22:26:15.223Z,99123.09
2022-11-20T22:28:13.265Z,99122.34
2022-11-20T22:30:11.275Z,99128.19
2022-11-20T22:32:09.588Z,99118.69
2022-11-20T22:34:08.017Z,99123.78
2022-11-20T22:36:06.093Z,99118.69
2022-11-20T22:38:04.181Z,99116.50
2022-11-20T22:40:02.392Z,99117.22
2022-11-20T22:42:00.485Z,99118.69
2022-11-20T22:43:58.575Z,99109.91
2022-11-20T22:45:56.693Z,99112.78
2022-11-20T22:47:54.811Z,99115.72
2022-11-20T22:49:53.224Z,99134.69
2022-11-20T22:51:51.603Z,99137.63
2022-11-20T22:53:49.671Z,99143.47
2022-11-20T22:55:47.905Z,99139.06
2022-11-20T22:57:46.586Z,99136.84
2022-11-20T22:59:44.797Z,99141.94
2022-11-20T23:01:42.817Z,99128.06
2022-11-20T23:03:40.980Z,99126.59
2022-11-20T23:05:39.013Z,99136.06
2022-11-20T23:07:40.800Z,99132.44
2022-11-20T23:09:39.437Z,99120.00
2022-11-20T23:11:37.830Z,99123.66
2022-11-20T23:13:36.081Z,99124.34
2022-11-20T23:15:34.095Z,99108.28
2022-11-20T23:17:32.334Z,99104.63
2022-11-20T23:19:30.419Z,99098.78
2022-11-20T23:21:28.868Z,99109.72
2022-11-20T23:23:26.920Z,99099.47
2022-11-20T23:25:25.341Z,99090.69
2022-11-20T23:27:27.283Z,99095.09
2022-11-20T23:29:26.656Z,99092.13
2022-11-20T23:31:24.880Z,99103.81
2022-11-20T23:33:22.934Z,99100.16
2022-11-20T23:35:21.186Z,99092.84
2022-11-20T23:37:19.406Z,99089.19
2022-11-20T23:39:17.814Z,99086.28
2022-11-20T23:41:15.847Z,99089.16
2022-11-20T23:43:16.934Z,99085.50
2022-11-20T23:45:15.053Z,99073.81
2022-11-20T23:47:13.117Z,99075.22
2022-11-20T23:49:11.254Z,99075.28
2022-11-20T23:51:09.342Z,99068.66
2022-11-20T23:53:07.612Z,99070.13
2022-11-20T23:55:05.652Z,99065.00
2022-11-20T23:57:03.738Z,99062.06
2022-11-20T23:59:01.802Z,99058.41
